createdAt,value
2019-01-28T00:00:34.635Z,16.40
2019-01-28T00:03:03.327Z,15.30
2019-01-28T00:05:31.647Z,15.90
2019-01-28T00:08:00.347Z,16.40
2019-01-28T00:10:28.672Z,15.33
2019-01-28T00:12:57.135Z,17.43
2019-01-28T00:15:25.499Z,16.87
2019-01-28T00:17:53.907Z,16.43
2019-01-28T00:20:22.291Z,17.07
2019-01-28T00:22:50.767Z,15.63
2019-01-28T00:25:19.095Z,16.07
2019-01-28T00:27:47.510Z,15.97
2019-01-28T00:30:16.074Z,14.37
2019-01-28T00:32:44.513Z,14.57
2019-01-28T00:35:13.526Z,13.17
2019-01-28T00:37:42.107Z,13.30
2019-01-28T00:40:10.511Z,13.97
2019-01-28T00:42:38.955Z,12.33
2019-01-28T00:45:09.535Z,12.33
2019-01-28T00:47:37.944Z,12.03
2019-01-28T00:50:07.099Z,11.93
2019-01-28T00:52:35.438Z,11.13
2019-01-28T00:55:04.242Z,11.13
2019-01-28T00:57:32.848Z,9.27
2019-01-28T01:00:01.239Z,10.10
2019-01-28T01:02:29.606Z,9.87
2019-01-28T01:04:57.954Z,9.73
2019-01-28T01:07:26.366Z,9.33
2019-01-28T01:09:54.674Z,8.20
2019-01-28T01:12:23.008Z,9.07
2019-01-28T01:14:51.491Z,8.67
2019-01-28T01:17:19.795Z,8.40
2019-01-28T01:19:48.145Z,7.87
2019-01-28T01:22:16.615Z,8.20
2019-01-28T01:24:45.326Z,7.40
2019-01-28T01:27:13.684Z,7.90
2019-01-28T01:29:42.332Z,7.43
2019-01-28T01:32:10.910Z,8.33
2019-01-28T01:34:39.291Z,7.43
2019-01-28T01:37:07.632Z,6.80
2019-01-28T01:39:35.975Z,7.50
2019-01-28T01:42:04.539Z,8.07
2019-01-28T01:44:32.879Z,7.60
2019-01-28T01:47:01.286Z,8.27
2019-01-28T01:49:29.591Z,7.43
2019-01-28T01:51:57.941Z,8.17
2019-01-28T01:54:26.316Z,9.07
2019-01-28T01:56:54.611Z,8.27
2019-01-28T01:59:23.121Z,8.97
2019-01-28T02:01:51.432Z,7.90
2019-01-28T02:04:19.751Z,8.33
2019-01-28T02:06:48.100Z,8.87
2019-01-28T02:09:16.481Z,7.13
2019-01-28T02:11:44.778Z,7.53
2019-01-28T02:14:13.105Z,7.03
2019-01-28T02:16:41.444Z,7.50
2019-01-28T02:19:09.851Z,7.57
2019-01-28T02:21:38.251Z,6.60
2019-01-28T02:24:06.954Z,7.27
2019-01-28T02:26:35.798Z,6.90
2019-01-28T02:29:04.270Z,7.37
2019-01-28T02:31:32.579Z,6.57
2019-01-28T02:34:00.986Z,6.47
2019-01-28T02:36:29.529Z,7.00
2019-01-28T02:38:58.142Z,7.20
2019-01-28T02:41:26.566Z,7.30
2019-01-28T02:43:54.806Z,6.47
2019-01-28T02:46:23.269Z,6.03
2019-01-28T02:48:51.624Z,6.13
2019-01-28T02:51:19.961Z,6.10
2019-01-28T02:53:48.366Z,6.37
2019-01-28T02:56:16.786Z,6.27
2019-01-28T02:58:45.160Z,7.17
2019-01-28T03:01:13.548Z,6.17
2019-01-28T03:03:41.845Z,6.37
2019-01-28T03:06:10.293Z,6.73
2019-01-28T03:08:38.677Z,6.73
2019-01-28T03:11:07.005Z,5.80
2019-01-28T03:13:35.691Z,5.90
2019-01-28T03:16:04.155Z,5.60
2019-01-28T03:18:32.479Z,5.00
2019-01-28T03:21:00.867Z,4.20
2019-01-28T03:23:29.227Z,4.93
2019-01-28T03:25:57.561Z,4.33
2019-01-28T03:28:26.099Z,4.20
2019-01-28T03:30:54.486Z,5.30
2019-01-28T03:33:22.907Z,4.33
2019-01-28T03:35:51.378Z,3.60
2019-01-28T03:38:19.779Z,4.03
2019-01-28T03:40:48.708Z,4.63
2019-01-28T03:43:17.200Z,4.80
2019-01-28T03:45:45.566Z,3.93
2019-01-28T03:48:13.950Z,4.97
2019-01-28T03:50:42.363Z,4.63
2019-01-28T03:53:10.796Z,4.53
2019-01-28T03:55:39.239Z,4.53
2019-01-28T03:58:07.576Z,4.23
2019-01-28T04:00:35.970Z,4.50
2019-01-28T04:03:04.518Z,4.20
2019-01-28T04:05:32.888Z,3.40
2019-01-28T04:08:01.212Z,3.37
2019-01-28T04:10:29.645Z,3.67
2019-01-28T04:12:58.014Z,3.97
2019-01-28T04:15:26.463Z,4.33
2019-01-28T04:17:54.842Z,3.57
2019-01-28T04:20:24.231Z,3.87
2019-01-28T04:22:52.753Z,4.17
2019-01-28T04:25:21.441Z,4.43
2019-01-28T04:27:49.772Z,3.80
2019-01-28T04:30:20.525Z,4.20
2019-01-28T04:32:48.837Z,4.57
2019-01-28T04:35:17.311Z,4.57
2019-01-28T04:37:45.823Z,4.40
2019-01-28T04:40:14.218Z,4.80
2019-01-28T04:42:42.652Z,5.20
2019-01-28T04:45:13.384Z,5.40
2019-01-28T04:47:41.725Z,4.53
2019-01-28T04:50:12.556Z,4.93
2019-01-28T04:52:40.885Z,4.60
2019-01-28T04:55:09.605Z,3.97
2019-01-28T04:57:38.003Z,4.60
2019-01-28T05:00:10.064Z,5.20
2019-01-28T05:02:38.477Z,4.90
2019-01-28T05:05:07.071Z,5.43
2019-01-28T05:07:35.464Z,5.50
2019-01-28T05:10:04.028Z,5.83
2019-01-28T05:12:32.360Z,6.13
2019-01-28T05:15:00.695Z,5.47
2019-01-28T05:17:29.357Z,5.53
2019-01-28T05:19:58.039Z,6.60
2019-01-28T05:22:26.449Z,6.20
2019-01-28T05:24:54.773Z,5.77
2019-01-28T05:27:23.064Z,5.73
2019-01-28T05:29:51.421Z,5.97
2019-01-28T05:32:20.076Z,6.27
2019-01-28T05:34:48.615Z,5.70
2019-01-28T05:37:17.041Z,5.70
2019-01-28T05:39:45.428Z,6.10
2019-01-28T05:42:13.955Z,7.07
2019-01-28T05:44:42.322Z,5.87
2019-01-28T05:47:10.678Z,7.30
2019-01-28T05:49:39.146Z,6.63
2019-01-28T05:52:07.514Z,7.17
2019-01-28T05:54:35.908Z,7.17
2019-01-28T05:57:04.340Z,7.90
2019-01-28T05:59:32.638Z,8.30
2019-01-28T06:02:00.956Z,8.37
2019-01-28T06:04:29.396Z,7.83
2019-01-28T06:06:57.832Z,8.07
2019-01-28T06:09:26.306Z,8.20
2019-01-28T06:11:54.893Z,8.50
2019-01-28T06:14:23.242Z,9.57
2019-01-28T06:16:51.688Z,9.47
2019-01-28T06:19:20.308Z,9.53
2019-01-28T06:21:49.112Z,8.17
2019-01-28T06:24:17.522Z,8.60
2019-01-28T06:26:45.877Z,9.77
2019-01-28T06:29:14.432Z,9.27
2019-01-28T06:31:42.940Z,9.33
2019-01-28T06:34:11.521Z,9.30
2019-01-28T06:36:40.815Z,8.80
2019-01-28T06:39:10.176Z,9.50
2019-01-28T06:41:38.826Z,9.20
2019-01-28T06:44:07.404Z,9.97
2019-01-28T06:46:35.869Z,8.53
2019-01-28T06:49:04.244Z,8.93
2019-01-28T06:51:32.622Z,10.33
2019-01-28T06:54:00.976Z,9.70
2019-01-28T06:56:29.305Z,10.63
2019-01-28T06:58:57.754Z,9.33
2019-01-28T07:01:26.065Z,9.93
2019-01-28T07:03:54.380Z,10.30
2019-01-28T07:06:22.784Z,10.03
2019-01-28T07:08:51.067Z,10.60
2019-01-28T07:11:19.375Z,8.97
2019-01-28T07:13:47.719Z,10.03
2019-01-28T07:16:16.021Z,11.37
2019-01-28T07:18:44.430Z,8.63
2019-01-28T07:21:12.858Z,9.40
2019-01-28T07:23:41.227Z,9.60
2019-01-28T07:26:09.584Z,10.37
2019-01-28T07:28:37.926Z,9.63
2019-01-28T07:31:06.354Z,9.73
2019-01-28T07:33:34.706Z,9.40
2019-01-28T07:36:03.570Z,8.97
2019-01-28T07:38:31.893Z,9.50
2019-01-28T07:41:00.235Z,9.67
2019-01-28T07:43:28.852Z,9.80
2019-01-28T07:45:57.191Z,10.17
2019-01-28T07:48:25.570Z,10.07
2019-01-28T07:50:54.007Z,11.37
2019-01-28T07:53:22.318Z,9.83
2019-01-28T07:55:50.727Z,11.37
2019-01-28T07:58:19.046Z,9.03
2019-01-28T08:00:47.589Z,10.87
2019-01-28T08:03:16.024Z,10.23
2019-01-28T08:05:44.353Z,10.87
2019-01-28T08:08:12.849Z,10.37
2019-01-28T08:10:41.180Z,10.73
2019-01-28T08:13:09.566Z,10.20
2019-01-28T08:15:38.069Z,11.60
2019-01-28T08:18:10.817Z,11.20
2019-01-28T08:20:34.903Z,10.43
2019-01-28T08:23:03.500Z,11.40
2019-01-28T08:25:31.877Z,12.40
2019-01-28T08:28:00.193Z,11.20
2019-01-28T08:30:33.594Z,12.63
2019-01-28T08:33:03.027Z,12.70
2019-01-28T08:35:31.234Z,12.30
2019-01-28T08:38:00.084Z,12.57
2019-01-28T08:40:28.575Z,12.33
2019-01-28T08:42:56.924Z,12.57
2019-01-28T08:45:25.279Z,12.33
2019-01-28T08:47:53.743Z,12.73
2019-01-28T08:50:22.866Z,13.10
2019-01-28T08:52:51.413Z,13.17
2019-01-28T08:55:21.022Z,13.83
2019-01-28T08:57:49.548Z,12.23
2019-01-28T09:00:20.239Z,13.87
2019-01-28T09:02:48.875Z,12.77
2019-01-28T09:05:17.603Z,12.30
2019-01-28T09:07:45.976Z,13.53
2019-01-28T09:10:14.926Z,11.80
2019-01-28T09:12:43.926Z,12.03
2019-01-28T09:15:14.097Z,12.77
2019-01-28T09:17:42.458Z,13.93
2019-01-28T09:20:14.460Z,12.17
2019-01-28T09:22:43.012Z,12.70
2019-01-28T09:25:11.691Z,12.47
2019-01-28T09:27:40.079Z,12.43
2019-01-28T09:30:10.900Z,12.07
2019-01-28T09:32:39.241Z,12.40
2019-01-28T09:35:07.860Z,12.33
2019-01-28T09:37:36.238Z,12.77
2019-01-28T09:40:06.570Z,12.20
2019-01-28T09:42:34.939Z,12.37
2019-01-28T09:45:03.559Z,12.83
2019-01-28T09:47:31.890Z,12.83
2019-01-28T09:50:00.466Z,12.13
2019-01-28T09:52:28.852Z,12.37
2019-01-28T09:54:57.154Z,13.73
2019-01-28T09:57:25.646Z,13.70
2019-01-28T09:59:54.044Z,14.00
2019-01-28T10:02:23.683Z,12.73
2019-01-28T10:04:50.972Z,11.83
2019-01-28T10:07:19.350Z,14.07
2019-01-28T10:09:47.733Z,11.50
2019-01-28T10:12:16.259Z,12.20
2019-01-28T10:14:44.568Z,12.53
2019-01-28T10:17:12.940Z,12.20
2019-01-28T10:19:41.309Z,12.43
2019-01-28T10:22:09.701Z,12.73
2019-01-28T10:24:38.011Z,12.67
2019-01-28T10:27:06.389Z,12.17
2019-01-28T10:29:34.718Z,11.63
2019-01-28T10:32:03.094Z,11.57
2019-01-28T10:34:31.465Z,11.77
2019-01-28T10:36:59.801Z,11.73
2019-01-28T10:39:28.138Z,11.93
2019-01-28T10:41:56.921Z,11.57
2019-01-28T10:44:25.299Z,12.17
2019-01-28T10:46:53.714Z,12.27
2019-01-28T10:49:22.368Z,11.87
2019-01-28T10:51:50.693Z,12.83
2019-01-28T10:54:19.033Z,11.77
2019-01-28T10:56:47.690Z,12.57
2019-01-28T10:59:16.153Z,11.17
2019-01-28T11:01:44.612Z,11.13
2019-01-28T11:04:12.936Z,12.00
2019-01-28T11:06:41.262Z,11.37
2019-01-28T11:09:09.581Z,11.20
2019-01-28T11:11:37.925Z,11.90
2019-01-28T11:14:06.444Z,10.80
2019-01-28T11:16:34.947Z,12.43
2019-01-28T11:19:03.556Z,13.03
2019-01-28T11:21:31.861Z,11.47
2019-01-28T11:24:00.217Z,12.20
2019-01-28T11:26:28.686Z,13.23
2019-01-28T11:28:57.015Z,12.10
2019-01-28T11:31:25.496Z,12.77
2019-01-28T11:33:53.826Z,12.60
2019-01-28T11:36:22.308Z,11.97
2019-01-28T11:38:50.627Z,11.77
2019-01-28T11:41:19.133Z,13.27
2019-01-28T11:43:47.623Z,13.60
2019-01-28T11:46:16.020Z,12.13
2019-01-28T11:48:44.257Z,13.30
2019-01-28T11:51:12.624Z,14.10
2019-01-28T11:53:40.958Z,12.50
2019-01-28T11:56:09.316Z,14.17
2019-01-28T11:58:37.690Z,14.37
2019-01-28T12:01:18.528Z,14.10
2019-01-28T12:03:46.955Z,13.03
2019-01-28T12:06:15.275Z,12.37
2019-01-28T12:08:43.588Z,14.23
2019-01-28T12:11:11.979Z,14.43
2019-01-28T12:13:40.414Z,13.97
2019-01-28T12:16:08.742Z,13.63
2019-01-28T12:18:37.188Z,14.00
2019-01-28T12:21:05.660Z,13.87
2019-01-28T12:23:34.703Z,12.53
2019-01-28T12:26:02.593Z,13.30
2019-01-28T12:28:30.975Z,14.17
2019-01-28T12:30:59.292Z,13.63
2019-01-28T12:33:27.665Z,13.27
2019-01-28T12:35:56.030Z,14.17
2019-01-28T12:38:24.363Z,13.60
2019-01-28T12:40:52.689Z,14.23
2019-01-28T12:43:21.252Z,13.40
2019-01-28T12:45:50.238Z,13.80
2019-01-28T12:48:18.571Z,13.77
2019-01-28T12:50:47.011Z,13.07
2019-01-28T12:53:15.332Z,14.73
2019-01-28T12:55:43.730Z,13.03
2019-01-28T12:58:12.091Z,14.43
2019-01-28T13:00:42.351Z,14.67
2019-01-28T13:03:11.429Z,14.63
2019-01-28T13:05:40.053Z,14.33
2019-01-28T13:08:08.426Z,15.23
2019-01-28T13:10:36.812Z,15.50
2019-01-28T13:13:05.214Z,13.80
2019-01-28T13:15:33.701Z,14.47
2019-01-28T13:18:02.088Z,16.47
2019-01-28T13:20:30.599Z,15.20
2019-01-28T13:22:58.914Z,15.73
2019-01-28T13:25:27.803Z,15.70
2019-01-28T13:27:56.174Z,15.53
2019-01-28T13:30:26.873Z,15.87
2019-01-28T13:32:55.887Z,16.13
2019-01-28T13:35:24.253Z,15.63
2019-01-28T13:37:52.630Z,15.60
2019-01-28T13:40:21.037Z,15.10
2019-01-28T13:42:49.442Z,15.27
2019-01-28T13:45:18.684Z,15.40
2019-01-28T13:47:47.360Z,16.07
2019-01-28T13:50:18.275Z,15.83
2019-01-28T13:52:46.801Z,15.33
2019-01-28T13:55:15.312Z,17.07
2019-01-28T13:57:43.614Z,16.20
2019-01-28T14:00:17.245Z,17.43
2019-01-28T14:02:45.674Z,16.77
2019-01-28T14:05:14.237Z,16.43
2019-01-28T14:07:42.676Z,17.80
2019-01-28T14:10:11.944Z,17.63
2019-01-28T14:12:40.325Z,16.13
2019-01-28T14:15:12.396Z,17.70
2019-01-28T14:17:40.751Z,17.67
2019-01-28T14:20:12.196Z,18.37
2019-01-28T14:22:40.617Z,18.13
2019-01-28T14:25:10.324Z,17.03
2019-01-28T14:27:38.802Z,16.50
2019-01-28T14:30:09.750Z,17.33
2019-01-28T14:32:38.097Z,18.10
2019-01-28T14:35:06.673Z,17.37
2019-01-28T14:37:35.152Z,17.03
2019-01-28T14:40:03.873Z,16.20
2019-01-28T14:42:32.337Z,15.83
2019-01-28T14:45:00.729Z,16.43
2019-01-28T14:47:29.312Z,15.70
2019-01-28T14:49:57.842Z,17.00
2019-01-28T14:52:26.183Z,17.33
2019-01-28T14:54:56.329Z,15.53
2019-01-28T14:57:23.133Z,16.30
2019-01-28T14:59:51.777Z,15.67
2019-01-28T15:02:20.422Z,16.13
2019-01-28T15:04:48.723Z,16.37
2019-01-28T15:07:17.040Z,16.27
2019-01-28T15:09:45.426Z,17.13
2019-01-28T15:12:13.967Z,17.13
2019-01-28T15:14:42.323Z,16.30
2019-01-28T15:17:10.762Z,17.67
2019-01-28T15:19:39.271Z,15.90
2019-01-28T15:22:07.720Z,17.37
2019-01-28T15:24:36.082Z,16.70
2019-01-28T15:27:04.461Z,19.70
2019-01-28T15:29:32.956Z,17.33
2019-01-28T15:32:01.282Z,17.90
2019-01-28T15:34:29.611Z,18.80
2019-01-28T15:36:58.398Z,19.00
2019-01-28T15:39:27.804Z,17.83
2019-01-28T15:41:56.173Z,16.90
2019-01-28T15:44:24.587Z,17.80
2019-01-28T15:46:53.135Z,18.27
2019-01-28T15:49:21.548Z,17.20
2019-01-28T15:51:50.201Z,18.23
2019-01-28T15:54:18.530Z,18.57
2019-01-28T15:56:46.950Z,18.40
2019-01-28T15:59:15.331Z,19.07
2019-01-28T16:01:43.660Z,20.77
2019-01-28T16:04:12.083Z,20.73
2019-01-28T16:06:40.444Z,20.70
2019-01-28T16:09:09.609Z,19.70
2019-01-28T16:11:38.039Z,21.77
2019-01-28T16:14:06.386Z,21.60
2019-01-28T16:16:34.928Z,21.27
2019-01-28T16:19:03.293Z,21.07
2019-01-28T16:21:31.650Z,22.17
2019-01-28T16:23:59.997Z,21.13
2019-01-28T16:26:28.374Z,21.63
2019-01-28T16:28:56.710Z,21.30
2019-01-28T16:31:25.155Z,22.90
2019-01-28T16:33:53.739Z,22.60
2019-01-28T16:36:22.064Z,23.00
2019-01-28T16:38:50.602Z,22.80
2019-01-28T16:41:18.981Z,23.03
2019-01-28T16:43:47.326Z,23.53
2019-01-28T16:46:16.047Z,22.30
2019-01-28T16:48:44.386Z,24.10
2019-01-28T16:51:13.040Z,23.80
2019-01-28T16:53:41.496Z,24.27
2019-01-28T16:56:09.821Z,24.77
2019-01-28T16:58:38.230Z,25.20
2019-01-28T17:01:06.649Z,25.00
2019-01-28T17:03:34.994Z,25.47
2019-01-28T17:06:03.375Z,23.83
2019-01-28T17:08:31.736Z,27.37
2019-01-28T17:11:00.048Z,25.13
2019-01-28T17:13:28.386Z,26.70
2019-01-28T17:15:56.878Z,28.67
2019-01-28T17:18:25.207Z,26.13
2019-01-28T17:20:53.550Z,26.03
2019-01-28T17:23:21.956Z,28.47
2019-01-28T17:25:50.270Z,27.70
2019-01-28T17:28:18.620Z,26.07
2019-01-28T17:30:49.116Z,24.47
2019-01-28T17:33:17.611Z,26.53
2019-01-28T17:35:45.920Z,25.40
2019-01-28T17:38:14.300Z,27.00
2019-01-28T17:40:43.616Z,26.67
2019-01-28T17:43:13.064Z,29.20
2019-01-28T17:45:41.508Z,29.37
2019-01-28T17:48:10.050Z,29.67
2019-01-28T17:50:43.408Z,27.80
2019-01-28T17:53:06.815Z,27.57
2019-01-28T17:55:35.631Z,32.07
2019-01-28T17:58:04.315Z,29.60
2019-01-28T18:00:36.602Z,30.47
2019-01-28T18:03:05.044Z,30.60
2019-01-28T18:05:33.446Z,31.40
2019-01-28T18:08:01.752Z,32.43
2019-01-28T18:10:30.342Z,31.47
2019-01-28T18:12:58.722Z,32.23
2019-01-28T18:15:27.189Z,30.50
2019-01-28T18:17:55.594Z,31.17
2019-01-28T18:20:24.177Z,30.33
2019-01-28T18:22:52.541Z,27.33
2019-01-28T18:25:23.082Z,27.87
2019-01-28T18:27:51.386Z,26.67
2019-01-28T18:30:25.332Z,28.73
2019-01-28T18:32:53.630Z,26.47
2019-01-28T18:35:22.166Z,29.77
2019-01-28T18:37:50.609Z,27.90
2019-01-28T18:40:19.123Z,28.37
2019-01-28T18:42:47.570Z,27.80
2019-01-28T18:45:18.260Z,27.93
2019-01-28T18:47:44.407Z,27.63
2019-01-28T18:50:14.535Z,25.27
2019-01-28T18:52:42.962Z,27.10
2019-01-28T18:55:11.402Z,28.97
2019-01-28T18:57:39.888Z,31.27
2019-01-28T19:00:13.934Z,29.93
2019-01-28T19:02:42.271Z,30.30
2019-01-28T19:05:11.603Z,30.50
2019-01-28T19:07:44.386Z,29.23
2019-01-28T19:10:23.819Z,30.53
2019-01-28T19:13:03.467Z,30.43
2019-01-28T19:16:08.165Z,29.80
2019-01-28T19:18:40.851Z,29.93
2019-01-28T19:21:16.082Z,28.80
2019-01-28T19:23:44.579Z,28.73
2019-01-28T19:26:12.955Z,28.90
2019-01-28T19:28:41.346Z,29.07
2019-01-28T19:31:09.745Z,27.70
2019-01-28T19:33:38.094Z,26.37
2019-01-28T19:36:06.794Z,27.07
2019-01-28T19:38:35.195Z,28.47
2019-01-28T19:41:03.552Z,27.93
2019-01-28T19:43:31.885Z,26.77
2019-01-28T19:46:00.321Z,27.23
2019-01-28T19:48:28.736Z,24.83
2019-01-28T19:50:57.297Z,25.70
2019-01-28T19:53:25.892Z,25.63
2019-01-28T19:55:54.472Z,23.93
2019-01-28T19:58:22.836Z,24.13
2019-01-28T20:00:51.188Z,23.80
2019-01-28T20:03:19.555Z,22.33
2019-01-28T20:05:48.081Z,24.77
2019-01-28T20:08:16.614Z,26.33
2019-01-28T20:10:45.003Z,24.30
2019-01-28T20:13:13.376Z,23.20
2019-01-28T20:15:41.688Z,24.57
2019-01-28T20:18:10.126Z,25.33
2019-01-28T20:20:38.519Z,23.73
2019-01-28T20:23:06.860Z,22.37
2019-01-28T20:25:35.739Z,23.87
2019-01-28T20:28:03.717Z,23.03
2019-01-28T20:30:32.068Z,23.20
2019-01-28T20:33:00.571Z,26.57
2019-01-28T20:35:30.136Z,27.20
2019-01-28T20:37:57.459Z,26.80
2019-01-28T20:40:25.769Z,25.27
2019-01-28T20:42:54.142Z,24.93
2019-01-28T20:45:23.345Z,24.40
2019-01-28T20:47:51.921Z,27.50
2019-01-28T20:50:22.334Z,28.30
2019-01-28T20:52:50.789Z,26.53
2019-01-28T20:55:19.188Z,24.20
2019-01-28T20:57:47.657Z,27.67
2019-01-28T21:00:17.971Z,25.67
2019-01-28T21:02:46.444Z,26.83
2019-01-28T21:05:16.053Z,26.43
2019-01-28T21:07:44.743Z,26.13
2019-01-28T21:10:14.251Z,24.53
2019-01-28T21:12:42.750Z,23.20
2019-01-28T21:15:12.889Z,23.23
2019-01-28T21:17:41.328Z,23.10
2019-01-28T21:20:12.093Z,21.97
2019-01-28T21:22:40.490Z,22.50
2019-01-28T21:25:11.350Z,23.63
2019-01-28T21:27:39.638Z,20.73
2019-01-28T21:30:10.351Z,24.20
2019-01-28T21:32:38.733Z,20.57
2019-01-28T21:35:08.533Z,24.13
2019-01-28T21:37:44.135Z,22.87
2019-01-28T21:40:12.697Z,23.60
2019-01-28T21:42:41.001Z,24.20
2019-01-28T21:45:10.075Z,25.07
2019-01-28T21:47:38.444Z,24.80
2019-01-28T21:50:07.843Z,20.67
2019-01-28T21:52:36.233Z,22.03
2019-01-28T21:55:05.149Z,20.40
2019-01-28T21:57:33.494Z,21.27
2019-01-28T22:00:01.908Z,20.97
2019-01-28T22:02:30.203Z,20.93
2019-01-28T22:04:58.624Z,19.67
2019-01-28T22:07:26.940Z,19.50
2019-01-28T22:09:55.687Z,19.70
2019-01-28T22:12:24.097Z,18.33
2019-01-28T22:14:52.396Z,18.87
2019-01-28T22:17:20.703Z,20.53
2019-01-28T22:19:49.069Z,19.03
2019-01-28T22:22:17.399Z,18.43
2019-01-28T22:24:45.703Z,19.07
2019-01-28T22:27:14.069Z,19.30
2019-01-28T22:29:42.398Z,20.47
2019-01-28T22:32:10.773Z,20.03
2019-01-28T22:34:47.512Z,20.80
2019-01-28T22:37:07.551Z,19.57
2019-01-28T22:39:35.900Z,20.97
2019-01-28T22:42:04.437Z,24.63
2019-01-28T22:44:32.804Z,22.93
2019-01-28T22:47:01.150Z,23.10
2019-01-28T22:49:29.435Z,22.80
2019-01-28T22:51:57.754Z,23.40
2019-01-28T22:54:26.076Z,26.10
2019-01-28T22:56:54.406Z,23.37
2019-01-28T22:59:22.932Z,23.80
2019-01-28T23:01:51.299Z,21.97
2019-01-28T23:04:19.695Z,21.43
2019-01-28T23:06:48.020Z,21.37
2019-01-28T23:09:16.358Z,18.67
2019-01-28T23:11:44.792Z,18.67
2019-01-28T23:14:13.131Z,20.40
2019-01-28T23:16:41.524Z,18.30
2019-01-28T23:19:09.824Z,17.40
2019-01-28T23:21:38.891Z,15.20
2019-01-28T23:24:07.281Z,18.77
2019-01-28T23:26:35.700Z,18.53
2019-01-28T23:29:04.109Z,18.70
2019-01-28T23:31:32.471Z,16.93
2019-01-28T23:34:00.851Z,17.17
2019-01-28T23:36:29.189Z,17.77
2019-01-28T23:38:57.585Z,15.70
2019-01-28T23:41:26.083Z,12.87
2019-01-28T23:43:54.805Z,13.57
2019-01-28T23:46:23.152Z,13.57
2019-01-28T23:48:51.535Z,14.83
2019-01-28T23:51:20.038Z,15.40
2019-01-28T23:53:48.467Z,17.27
2019-01-28T23:56:16.841Z,17.93
2019-01-28T23:58:45.380Z,14.27
